ESMT/HAD METAR and TAF weather

Enter ICAO airport designator
Station Type Date Time Source
ESMT METAR 2021/05/11 01:50 UTC NOAA

ESMT 110150Z AUTO 15003KT 120V230 7000 -RA NCD 12/11 Q1012 REDZ REUP


Station Type Date Time Source
ESMT Decoded METAR 2021/05/11 01:50 UTC NOAA

Halmstad Swedish Air Force Base , Sweden (ESMT) 56-41N 012-50E
May 10, 2021 - 09:50 PM EDT / 2021.05.11 0150 UTC
Wind: from the SSE (150 degrees) at 3 MPH (3 KT) (direction variable):0
Visibility: 4 mile(s):0
Weather: light rain
Temperature: 53 F (12 C)
Dew Point: 51 F (11 C)
Relative Humidity: 93%
Pressure (altimeter): 29.88 in. Hg (1012 hPa)
ob: ESMT 110150Z AUTO 15003KT 120V230 7000 -RA NCD 12/11 Q1012 REDZ REUP
cycle: 2

Station Type Date Time Source
ESMT TAF 2020/11/01 07:40 UTC NOAA

TAF
AMD ESMT 010733Z 0107/0121 16010KT 9999 BKN012
TEMPO 0107/0109 2800 RADZ BR BKN003
BECMG 0109/0112 SCT012

Example: see airport list